sensor_id;sensor_type;location;lat;lon;timestamp;P1;durP1;ratioP1;P2;durP2;ratioP2
20966;SDS011;10642;50.682;18.510;2023-04-03T00:02:02;8.43;;;3.03;;
20966;SDS011;10642;50.682;18.510;2023-04-03T00:04:29;10.00;;;3.20;;
20966;SDS011;10642;50.682;18.510;2023-04-03T00:06:56;7.17;;;2.87;;
20966;SDS011;10642;50.682;18.510;2023-04-03T00:09:23;8.67;;;2.97;;
20966;SDS011;10642;50.682;18.510;2023-04-03T00:11:50;6.90;;;2.37;;
20966;SDS011;10642;50.682;18.510;2023-04-03T00:14:17;6.33;;;2.67;;
20966;SDS011;10642;50.682;18.510;2023-04-03T00:16:44;7.73;;;3.00;;
20966;SDS011;10642;50.682;18.510;2023-04-03T00:19:11;7.77;;;2.80;;
20966;SDS011;10642;50.682;18.510;2023-04-03T00:21:39;12.00;;;3.70;;
20966;SDS011;10642;50.682;18.510;2023-04-03T00:24:06;8.50;;;3.07;;
20966;SDS011;10642;50.682;18.510;2023-04-03T00:26:33;9.57;;;3.00;;
20966;SDS011;10642;50.682;18.510;2023-04-03T00:29:00;7.47;;;3.20;;
20966;SDS011;10642;50.682;18.510;2023-04-03T00:31:27;6.17;;;2.83;;
20966;SDS011;10642;50.682;18.510;2023-04-03T00:33:54;9.60;;;2.40;;
20966;SDS011;10642;50.682;18.510;2023-04-03T00:36:21;11.40;;;3.73;;
20966;SDS011;10642;50.682;18.510;2023-04-03T00:38:48;8.33;;;2.70;;
20966;SDS011;10642;50.682;18.510;2023-04-03T00:41:15;8.67;;;3.03;;
20966;SDS011;10642;50.682;18.510;2023-04-03T00:43:43;10.47;;;3.40;;
20966;SDS011;10642;50.682;18.510;2023-04-03T00:46:10;7.07;;;2.67;;
20966;SDS011;10642;50.682;18.510;2023-04-03T00:48:41;10.27;;;3.57;;
20966;SDS011;10642;50.682;18.510;2023-04-03T00:51:10;8.53;;;3.63;;
20966;SDS011;10642;50.682;18.510;2023-04-03T00:54:00;8.43;;;2.50;;
20966;SDS011;10642;50.682;18.510;2023-04-03T00:56:25;7.90;;;2.60;;
20966;SDS011;10642;50.682;18.510;2023-04-03T00:58:54;8.33;;;3.03;;
20966;SDS011;10642;50.682;18.510;2023-04-03T01:01:25;7.60;;;2.83;;
20966;SDS011;10642;50.682;18.510;2023-04-03T01:03:52;8.70;;;2.63;;
20966;SDS011;10642;50.682;18.510;2023-04-03T01:06:23;5.67;;;2.53;;
20966;SDS011;10642;50.682;18.510;2023-04-03T01:08:52;12.53;;;2.80;;
20966;SDS011;10642;50.682;18.510;2023-04-03T01:11:19;7.27;;;2.50;;
20966;SDS011;10642;50.682;18.510;2023-04-03T01:13:48;8.60;;;2.90;;
20966;SDS011;10642;50.682;18.510;2023-04-03T01:16:15;7.53;;;2.53;;
20966;SDS011;10642;50.682;18.510;2023-04-03T01:18:42;5.77;;;2.73;;
20966;SDS011;10642;50.682;18.510;2023-04-03T01:23:43;7.80;;;2.53;;
20966;SDS011;10642;50.682;18.510;2023-04-03T01:26:12;7.33;;;2.70;;
20966;SDS011;10642;50.682;18.510;2023-04-03T01:28:40;5.83;;;2.30;;
20966;SDS011;10642;50.682;18.510;2023-04-03T01:31:15;7.80;;;2.50;;
20966;SDS011;10642;50.682;18.510;2023-04-03T01:33:46;10.67;;;2.90;;
20966;SDS011;10642;50.682;18.510;2023-04-03T01:36:15;5.00;;;2.80;;
20966;SDS011;10642;50.682;18.510;2023-04-03T01:38:43;7.13;;;2.67;;
20966;SDS011;10642;50.682;18.510;2023-04-03T01:41:11;5.97;;;2.53;;
20966;SDS011;10642;50.682;18.510;2023-04-03T01:43:40;6.53;;;2.13;;
20966;SDS011;10642;50.682;18.510;2023-04-03T01:46:07;8.90;;;2.33;;
20966;SDS011;10642;50.682;18.510;2023-04-03T01:48:34;7.13;;;2.70;;
20966;SDS011;10642;50.682;18.510;2023-04-03T01:51:01;7.43;;;2.63;;
20966;SDS011;10642;50.682;18.510;2023-04-03T01:53:28;8.47;;;2.30;;
20966;SDS011;10642;50.682;18.510;2023-04-03T01:55:55;6.63;;;2.50;;
20966;SDS011;10642;50.682;18.510;2023-04-03T01:58:22;6.40;;;2.00;;
20966;SDS011;10642;50.682;18.510;2023-04-03T02:00:50;4.93;;;2.47;;
20966;SDS011;10642;50.682;18.510;2023-04-03T02:03:18;7.27;;;2.60;;
20966;SDS011;10642;50.682;18.510;2023-04-03T02:05:45;8.03;;;3.10;;
20966;SDS011;10642;50.682;18.510;2023-04-03T02:08:12;11.50;;;2.73;;
20966;SDS011;10642;50.682;18.510;2023-04-03T02:10:39;7.57;;;2.53;;
20966;SDS011;10642;50.682;18.510;2023-04-03T02:13:06;8.33;;;2.77;;
20966;SDS011;10642;50.682;18.510;2023-04-03T02:15:34;8.83;;;2.70;;
20966;SDS011;10642;50.682;18.510;2023-04-03T02:18:01;7.33;;;2.73;;
20966;SDS011;10642;50.682;18.510;2023-04-03T02:20:33;7.33;;;2.87;;
20966;SDS011;10642;50.682;18.510;2023-04-03T02:23:00;12.47;;;3.27;;
20966;SDS011;10642;50.682;18.510;2023-04-03T02:25:28;7.07;;;2.70;;
20966;SDS011;10642;50.682;18.510;2023-04-03T02:27:55;6.57;;;2.20;;
20966;SDS011;10642;50.682;18.510;2023-04-03T02:30:22;7.40;;;2.90;;
20966;SDS011;10642;50.682;18.510;2023-04-03T02:32:48;5.30;;;2.30;;
20966;SDS011;10642;50.682;18.510;2023-04-03T02:35:16;7.30;;;2.67;;
20966;SDS011;10642;50.682;18.510;2023-04-03T02:37:43;9.10;;;2.80;;
20966;SDS011;10642;50.682;18.510;2023-04-03T02:40:10;8.20;;;2.80;;
20966;SDS011;10642;50.682;18.510;2023-04-03T02:42:38;7.47;;;2.90;;
20966;SDS011;10642;50.682;18.510;2023-04-03T02:45:05;9.13;;;2.33;;
20966;SDS011;10642;50.682;18.510;2023-04-03T02:47:32;4.70;;;2.07;;
20966;SDS011;10642;50.682;18.510;2023-04-03T02:49:59;6.37;;;2.47;;
20966;SDS011;10642;50.682;18.510;2023-04-03T02:52:26;7.67;;;2.60;;
20966;SDS011;10642;50.682;18.510;2023-04-03T02:54:56;7.80;;;2.70;;
20966;SDS011;10642;50.682;18.510;2023-04-03T02:57:23;6.27;;;2.53;;
20966;SDS011;10642;50.682;18.510;2023-04-03T02:59:50;5.27;;;2.50;;
20966;SDS011;10642;50.682;18.510;2023-04-03T03:02:17;8.73;;;3.13;;
20966;SDS011;10642;50.682;18.510;2023-04-03T03:04:44;9.90;;;2.50;;
20966;SDS011;10642;50.682;18.510;2023-04-03T03:07:11;4.90;;;2.57;;
20966;SDS011;10642;50.682;18.510;2023-04-03T03:09:38;8.07;;;2.90;;
20966;SDS011;10642;50.682;18.510;2023-04-03T03:12:05;6.33;;;2.33;;
20966;SDS011;10642;50.682;18.510;2023-04-03T03:14:31;8.53;;;2.77;;
20966;SDS011;10642;50.682;18.510;2023-04-03T03:16:58;5.93;;;2.70;;
20966;SDS011;10642;50.682;18.510;2023-04-03T03:19:25;7.67;;;2.60;;
20966;SDS011;10642;50.682;18.510;2023-04-03T03:21:52;8.83;;;2.53;;
20966;SDS011;10642;50.682;18.510;2023-04-03T03:24:21;7.73;;;2.10;;
20966;SDS011;10642;50.682;18.510;2023-04-03T03:26:48;6.83;;;2.20;;
20966;SDS011;10642;50.682;18.510;2023-04-03T03:29:15;7.37;;;2.90;;
20966;SDS011;10642;50.682;18.510;2023-04-03T03:31:43;9.77;;;3.03;;
20966;SDS011;10642;50.682;18.510;2023-04-03T03:34:10;5.70;;;2.30;;
20966;SDS011;10642;50.682;18.510;2023-04-03T03:36:37;7.87;;;2.87;;
20966;SDS011;10642;50.682;18.510;2023-04-03T03:39:04;8.87;;;2.43;;
20966;SDS011;10642;50.682;18.510;2023-04-03T03:41:31;6.57;;;2.43;;
20966;SDS011;10642;50.682;18.510;2023-04-03T03:43:59;9.80;;;2.30;;
20966;SDS011;10642;50.682;18.510;2023-04-03T03:46:28;9.47;;;2.87;;
20966;SDS011;10642;50.682;18.510;2023-04-03T03:48:55;6.40;;;2.40;;
20966;SDS011;10642;50.682;18.510;2023-04-03T03:51:22;9.73;;;2.70;;
20966;SDS011;10642;50.682;18.510;2023-04-03T03:53:49;5.27;;;2.73;;
20966;SDS011;10642;50.682;18.510;2023-04-03T03:56:18;6.77;;;2.50;;
20966;SDS011;10642;50.682;18.510;2023-04-03T03:58:45;6.77;;;2.83;;
20966;SDS011;10642;50.682;18.510;2023-04-03T04:01:12;8.00;;;2.80;;
20966;SDS011;10642;50.682;18.510;2023-04-03T04:03:44;11.30;;;2.93;;
20966;SDS011;10642;50.682;18.510;2023-04-03T04:06:16;6.37;;;2.57;;
20966;SDS011;10642;50.682;18.510;2023-04-03T04:08:44;9.03;;;2.27;;
20966;SDS011;10642;50.682;18.510;2023-04-03T04:11:12;9.93;;;2.93;;
20966;SDS011;10642;50.682;18.510;2023-04-03T04:13:40;8.33;;;2.80;;
20966;SDS011;10642;50.682;18.510;2023-04-03T04:16:10;5.10;;;2.23;;
20966;SDS011;10642;50.682;18.510;2023-04-03T04:18:37;7.53;;;2.57;;
20966;SDS011;10642;50.682;18.510;2023-04-03T04:21:04;7.93;;;2.67;;
20966;SDS011;10642;50.682;18.510;2023-04-03T04:23:32;8.77;;;2.30;;
20966;SDS011;10642;50.682;18.510;2023-04-03T04:25:59;5.80;;;2.40;;
20966;SDS011;10642;50.682;18.510;2023-04-03T04:28:30;7.50;;;2.30;;
20966;SDS011;10642;50.682;18.510;2023-04-03T04:30:59;6.87;;;2.47;;
20966;SDS011;10642;50.682;18.510;2023-04-03T04:33:26;7.00;;;3.00;;
20966;SDS011;10642;50.682;18.510;2023-04-03T04:35:56;7.67;;;2.67;;
20966;SDS011;10642;50.682;18.510;2023-04-03T04:38:23;7.57;;;2.80;;
20966;SDS011;10642;50.682;18.510;2023-04-03T04:40:52;9.43;;;2.40;;
20966;SDS011;10642;50.682;18.510;2023-04-03T04:43:19;7.63;;;2.60;;
20966;SDS011;10642;50.682;18.510;2023-04-03T04:45:59;11.07;;;2.87;;
20966;SDS011;10642;50.682;18.510;2023-04-03T04:48:27;10.10;;;3.07;;
20966;SDS011;10642;50.682;18.510;2023-04-03T04:50:57;7.00;;;2.40;;
20966;SDS011;10642;50.682;18.510;2023-04-03T04:53:24;7.77;;;2.97;;
20966;SDS011;10642;50.682;18.510;2023-04-03T04:55:51;7.40;;;2.30;;
20966;SDS011;10642;50.682;18.510;2023-04-03T04:58:18;5.47;;;2.10;;
20966;SDS011;10642;50.682;18.510;2023-04-03T05:00:46;8.00;;;2.80;;
20966;SDS011;10642;50.682;18.510;2023-04-03T05:03:13;6.20;;;2.53;;
20966;SDS011;10642;50.682;18.510;2023-04-03T05:05:40;13.37;;;3.00;;
20966;SDS011;10642;50.682;18.510;2023-04-03T05:08:07;9.30;;;3.07;;
20966;SDS011;10642;50.682;18.510;2023-04-03T05:10:37;5.80;;;2.30;;
20966;SDS011;10642;50.682;18.510;2023-04-03T05:13:04;8.13;;;2.57;;
20966;SDS011;10642;50.682;18.510;2023-04-03T05:15:31;7.93;;;2.70;;
20966;SDS011;10642;50.682;18.510;2023-04-03T05:17:58;6.03;;;2.27;;
20966;SDS011;10642;50.682;18.510;2023-04-03T05:20:25;9.63;;;2.90;;
20966;SDS011;10642;50.682;18.510;2023-04-03T05:22:53;5.10;;;2.27;;
20966;SDS011;10642;50.682;18.510;2023-04-03T05:25:20;7.77;;;3.00;;
20966;SDS011;10642;50.682;18.510;2023-04-03T05:27:48;9.20;;;2.47;;
20966;SDS011;10642;50.682;18.510;2023-04-03T05:30:16;6.77;;;2.60;;
20966;SDS011;10642;50.682;18.510;2023-04-03T05:32:44;8.33;;;2.93;;
20966;SDS011;10642;50.682;18.510;2023-04-03T05:35:31;6.70;;;2.73;;
20966;SDS011;10642;50.682;18.510;2023-04-03T05:38:00;5.83;;;2.40;;
20966;SDS011;10642;50.682;18.510;2023-04-03T05:40:28;8.23;;;2.80;;
20966;SDS011;10642;50.682;18.510;2023-04-03T05:42:56;9.00;;;2.93;;
20966;SDS011;10642;50.682;18.510;2023-04-03T05:45:25;8.13;;;3.00;;
20966;SDS011;10642;50.682;18.510;2023-04-03T05:47:52;10.00;;;3.23;;
20966;SDS011;10642;50.682;18.510;2023-04-03T05:50:19;8.33;;;2.80;;
20966;SDS011;10642;50.682;18.510;2023-04-03T05:52:49;8.67;;;2.80;;
20966;SDS011;10642;50.682;18.510;2023-04-03T05:55:16;7.03;;;2.27;;
20966;SDS011;10642;50.682;18.510;2023-04-03T05:57:43;7.27;;;2.97;;
20966;SDS011;10642;50.682;18.510;2023-04-03T06:00:15;5.73;;;2.87;;
20966;SDS011;10642;50.682;18.510;2023-04-03T06:02:48;6.90;;;2.43;;
20966;SDS011;10642;50.682;18.510;2023-04-03T06:05:20;8.07;;;2.93;;
20966;SDS011;10642;50.682;18.510;2023-04-03T06:07:47;7.13;;;2.57;;
20966;SDS011;10642;50.682;18.510;2023-04-03T06:10:16;6.83;;;2.90;;
20966;SDS011;10642;50.682;18.510;2023-04-03T06:12:44;6.10;;;2.43;;
20966;SDS011;10642;50.682;18.510;2023-04-03T06:15:11;6.30;;;2.87;;
20966;SDS011;10642;50.682;18.510;2023-04-03T06:17:39;10.47;;;2.87;;
20966;SDS011;10642;50.682;18.510;2023-04-03T06:20:07;7.50;;;2.57;;
20966;SDS011;10642;50.682;18.510;2023-04-03T06:22:34;10.93;;;4.23;;
20966;SDS011;10642;50.682;18.510;2023-04-03T06:25:01;8.57;;;3.23;;
20966;SDS011;10642;50.682;18.510;2023-04-03T06:27:28;5.37;;;2.03;;
20966;SDS011;10642;50.682;18.510;2023-04-03T06:29:55;7.83;;;2.90;;
20966;SDS011;10642;50.682;18.510;2023-04-03T06:32:22;11.17;;;4.20;;
20966;SDS011;10642;50.682;18.510;2023-04-03T06:34:48;10.17;;;3.43;;
20966;SDS011;10642;50.682;18.510;2023-04-03T06:37:16;8.70;;;2.90;;
20966;SDS011;10642;50.682;18.510;2023-04-03T06:39:44;7.23;;;2.70;;
20966;SDS011;10642;50.682;18.510;2023-04-03T06:42:11;8.30;;;4.00;;
20966;SDS011;10642;50.682;18.510;2023-04-03T06:44:47;10.47;;;3.60;;
20966;SDS011;10642;50.682;18.510;2023-04-03T06:47:14;7.13;;;3.73;;
20966;SDS011;10642;50.682;18.510;2023-04-03T06:49:41;12.67;;;5.37;;
20966;SDS011;10642;50.682;18.510;2023-04-03T06:52:09;11.37;;;4.00;;
20966;SDS011;10642;50.682;18.510;2023-04-03T06:54:36;7.30;;;3.30;;
20966;SDS011;10642;50.682;18.510;2023-04-03T06:57:03;10.47;;;4.60;;
20966;SDS011;10642;50.682;18.510;2023-04-03T06:59:30;13.33;;;6.23;;
20966;SDS011;10642;50.682;18.510;2023-04-03T07:01:57;10.17;;;4.27;;
20966;SDS011;10642;50.682;18.510;2023-04-03T07:04:26;9.30;;;2.63;;
20966;SDS011;10642;50.682;18.510;2023-04-03T07:06:53;9.67;;;3.50;;
20966;SDS011;10642;50.682;18.510;2023-04-03T07:09:20;5.37;;;2.23;;
20966;SDS011;10642;50.682;18.510;2023-04-03T07:11:48;6.73;;;2.80;;
20966;SDS011;10642;50.682;18.510;2023-04-03T07:14:15;9.87;;;2.40;;
20966;SDS011;10642;50.682;18.510;2023-04-03T07:16:42;7.70;;;3.23;;
20966;SDS011;10642;50.682;18.510;2023-04-03T07:19:09;8.73;;;2.90;;
20966;SDS011;10642;50.682;18.510;2023-04-03T07:21:36;13.07;;;5.27;;
20966;SDS011;10642;50.682;18.510;2023-04-03T07:24:04;7.20;;;3.37;;
20966;SDS011;10642;50.682;18.510;2023-04-03T07:26:31;10.43;;;3.33;;
20966;SDS011;10642;50.682;18.510;2023-04-03T07:28:58;8.27;;;3.70;;
20966;SDS011;10642;50.682;18.510;2023-04-03T07:31:24;8.03;;;3.20;;
20966;SDS011;10642;50.682;18.510;2023-04-03T07:33:52;11.47;;;3.33;;
20966;SDS011;10642;50.682;18.510;2023-04-03T07:36:20;6.20;;;2.23;;
20966;SDS011;10642;50.682;18.510;2023-04-03T07:38:47;5.43;;;2.67;;
20966;SDS011;10642;50.682;18.510;2023-04-03T07:41:15;6.53;;;2.70;;
20966;SDS011;10642;50.682;18.510;2023-04-03T07:43:44;9.63;;;2.93;;
20966;SDS011;10642;50.682;18.510;2023-04-03T07:46:11;8.00;;;2.67;;
20966;SDS011;10642;50.682;18.510;2023-04-03T07:48:38;5.37;;;2.47;;
20966;SDS011;10642;50.682;18.510;2023-04-03T07:51:06;6.43;;;2.90;;
20966;SDS011;10642;50.682;18.510;2023-04-03T07:53:33;6.37;;;2.63;;
20966;SDS011;10642;50.682;18.510;2023-04-03T07:56:00;5.43;;;2.63;;
20966;SDS011;10642;50.682;18.510;2023-04-03T07:58:29;5.93;;;2.33;;
20966;SDS011;10642;50.682;18.510;2023-04-03T08:00:56;7.57;;;2.20;;
20966;SDS011;10642;50.682;18.510;2023-04-03T08:03:23;5.17;;;1.77;;
20966;SDS011;10642;50.682;18.510;2023-04-03T08:05:51;6.40;;;2.17;;
20966;SDS011;10642;50.682;18.510;2023-04-03T08:08:19;4.23;;;2.00;;
20966;SDS011;10642;50.682;18.510;2023-04-03T08:10:50;5.43;;;1.70;;
20966;SDS011;10642;50.682;18.510;2023-04-03T08:13:18;3.83;;;1.70;;
20966;SDS011;10642;50.682;18.510;2023-04-03T08:15:45;5.43;;;2.37;;
20966;SDS011;10642;50.682;18.510;2023-04-03T08:18:12;4.53;;;1.80;;
20966;SDS011;10642;50.682;18.510;2023-04-03T08:20:40;4.00;;;1.90;;
20966;SDS011;10642;50.682;18.510;2023-04-03T08:23:08;6.00;;;1.80;;
20966;SDS011;10642;50.682;18.510;2023-04-03T08:25:39;8.43;;;1.93;;
20966;SDS011;10642;50.682;18.510;2023-04-03T08:28:06;4.40;;;1.50;;
20966;SDS011;10642;50.682;18.510;2023-04-03T08:30:33;3.87;;;1.40;;
20966;SDS011;10642;50.682;18.510;2023-04-03T08:33:00;3.83;;;1.63;;
20966;SDS011;10642;50.682;18.510;2023-04-03T08:35:28;3.67;;;1.33;;
20966;SDS011;10642;50.682;18.510;2023-04-03T08:37:55;4.57;;;1.47;;
20966;SDS011;10642;50.682;18.510;2023-04-03T08:40:23;4.57;;;1.50;;
20966;SDS011;10642;50.682;18.510;2023-04-03T08:43:01;5.33;;;2.03;;
20966;SDS011;10642;50.682;18.510;2023-04-03T08:50:26;3.73;;;1.17;;
20966;SDS011;10642;50.682;18.510;2023-04-03T08:52:57;4.30;;;1.40;;
20966;SDS011;10642;50.682;18.510;2023-04-03T08:55:25;5.70;;;1.50;;
20966;SDS011;10642;50.682;18.510;2023-04-03T08:57:57;4.77;;;1.53;;
20966;SDS011;10642;50.682;18.510;2023-04-03T09:00:27;2.33;;;1.20;;
20966;SDS011;10642;50.682;18.510;2023-04-03T09:02:55;3.67;;;1.53;;
20966;SDS011;10642;50.682;18.510;2023-04-03T09:08:00;9.80;;;1.57;;
20966;SDS011;10642;50.682;18.510;2023-04-03T09:10:28;4.07;;;1.50;;
20966;SDS011;10642;50.682;18.510;2023-04-03T09:15:30;3.47;;;1.50;;
20966;SDS011;10642;50.682;18.510;2023-04-03T09:18:08;4.83;;;1.40;;
20966;SDS011;10642;50.682;18.510;2023-04-03T09:23:34;3.27;;;1.00;;
20966;SDS011;10642;50.682;18.510;2023-04-03T09:26:05;2.73;;;1.30;;
20966;SDS011;10642;50.682;18.510;2023-04-03T09:28:35;3.10;;;1.20;;
20966;SDS011;10642;50.682;18.510;2023-04-03T09:33:46;2.30;;;1.30;;
20966;SDS011;10642;50.682;18.510;2023-04-03T09:36:14;3.07;;;1.30;;
20966;SDS011;10642;50.682;18.510;2023-04-03T09:39:05;5.03;;;1.67;;
20966;SDS011;10642;50.682;18.510;2023-04-03T09:41:32;2.60;;;1.20;;
20966;SDS011;10642;50.682;18.510;2023-04-03T09:43:59;5.07;;;1.30;;
20966;SDS011;10642;50.682;18.510;2023-04-03T09:46:33;3.27;;;1.47;;
20966;SDS011;10642;50.682;18.510;2023-04-03T09:49:02;3.87;;;1.20;;
20966;SDS011;10642;50.682;18.510;2023-04-03T09:51:35;4.00;;;1.90;;
20966;SDS011;10642;50.682;18.510;2023-04-03T09:56:49;3.87;;;1.07;;
20966;SDS011;10642;50.682;18.510;2023-04-03T09:59:16;4.67;;;1.63;;
20966;SDS011;10642;50.682;18.510;2023-04-03T10:01:56;3.67;;;1.20;;
20966;SDS011;10642;50.682;18.510;2023-04-03T10:04:24;3.97;;;1.60;;
20966;SDS011;10642;50.682;18.510;2023-04-03T10:06:54;2.27;;;1.07;;
20966;SDS011;10642;50.682;18.510;2023-04-03T10:09:22;4.90;;;1.20;;
20966;SDS011;10642;50.682;18.510;2023-04-03T10:12:09;4.00;;;1.27;;
20966;SDS011;10642;50.682;18.510;2023-04-03T10:14:39;2.57;;;1.23;;
20966;SDS011;10642;50.682;18.510;2023-04-03T10:19:42;3.43;;;1.30;;
20966;SDS011;10642;50.682;18.510;2023-04-03T10:22:15;3.00;;;1.00;;
20966;SDS011;10642;50.682;18.510;2023-04-03T10:24:51;3.53;;;1.43;;
20966;SDS011;10642;50.682;18.510;2023-04-03T10:27:34;4.87;;;1.40;;
20966;SDS011;10642;50.682;18.510;2023-04-03T10:30:10;3.47;;;1.40;;
20966;SDS011;10642;50.682;18.510;2023-04-03T10:35:16;5.80;;;1.73;;
20966;SDS011;10642;50.682;18.510;2023-04-03T10:37:51;4.20;;;1.30;;
20966;SDS011;10642;50.682;18.510;2023-04-03T10:40:30;9.77;;;1.50;;
20966;SDS011;10642;50.682;18.510;2023-04-03T10:43:02;7.93;;;1.30;;
20966;SDS011;10642;50.682;18.510;2023-04-03T10:48:04;3.27;;;1.10;;
20966;SDS011;10642;50.682;18.510;2023-04-03T10:53:10;3.70;;;1.43;;
20966;SDS011;10642;50.682;18.510;2023-04-03T10:58:31;4.70;;;1.40;;
20966;SDS011;10642;50.682;18.510;2023-04-03T11:01:08;4.10;;;1.30;;
20966;SDS011;10642;50.682;18.510;2023-04-03T11:03:38;3.67;;;1.30;;
20966;SDS011;10642;50.682;18.510;2023-04-03T11:06:09;3.87;;;1.33;;
20966;SDS011;10642;50.682;18.510;2023-04-03T11:08:46;3.20;;;1.37;;
20966;SDS011;10642;50.682;18.510;2023-04-03T11:11:16;6.03;;;1.50;;
20966;SDS011;10642;50.682;18.510;2023-04-03T11:16:31;3.37;;;1.20;;
20966;SDS011;10642;50.682;18.510;2023-04-03T11:19:17;2.03;;;1.10;;
20966;SDS011;10642;50.682;18.510;2023-04-03T11:21:56;4.10;;;1.63;;
20966;SDS011;10642;50.682;18.510;2023-04-03T11:24:28;3.17;;;1.53;;
20966;SDS011;10642;50.682;18.510;2023-04-03T11:26:56;4.43;;;1.60;;
20966;SDS011;10642;50.682;18.510;2023-04-03T11:29:30;3.00;;;1.23;;
20966;SDS011;10642;50.682;18.510;2023-04-03T11:34:47;3.07;;;1.40;;
20966;SDS011;10642;50.682;18.510;2023-04-03T11:37:20;3.13;;;1.47;;
20966;SDS011;10642;50.682;18.510;2023-04-03T11:39:54;4.30;;;1.20;;
20966;SDS011;10642;50.682;18.510;2023-04-03T11:44:49;3.10;;;1.70;;
20966;SDS011;10642;50.682;18.510;2023-04-03T11:50:03;3.87;;;1.30;;
20966;SDS011;10642;50.682;18.510;2023-04-03T11:53:10;6.13;;;1.53;;
20966;SDS011;10642;50.682;18.510;2023-04-03T12:05:55;5.23;;;2.00;;
20966;SDS011;10642;50.682;18.510;2023-04-03T12:13:36;4.27;;;1.60;;
20966;SDS011;10642;50.682;18.510;2023-04-03T12:16:07;3.23;;;1.10;;
20966;SDS011;10642;50.682;18.510;2023-04-03T12:21:17;3.33;;;1.63;;
20966;SDS011;10642;50.682;18.510;2023-04-03T12:26:22;4.23;;;1.50;;
20966;SDS011;10642;50.682;18.510;2023-04-03T12:28:57;5.87;;;2.00;;
20966;SDS011;10642;50.682;18.510;2023-04-03T12:31:25;5.27;;;2.17;;
20966;SDS011;10642;50.682;18.510;2023-04-03T12:34:04;3.47;;;1.60;;
20966;SDS011;10642;50.682;18.510;2023-04-03T12:39:03;4.57;;;1.67;;
20966;SDS011;10642;50.682;18.510;2023-04-03T12:41:42;3.30;;;1.33;;
20966;SDS011;10642;50.682;18.510;2023-04-03T12:44:19;7.50;;;1.90;;
20966;SDS011;10642;50.682;18.510;2023-04-03T12:46:49;4.67;;;1.93;;
20966;SDS011;10642;50.682;18.510;2023-04-03T12:51:55;4.47;;;1.30;;
20966;SDS011;10642;50.682;18.510;2023-04-03T12:54:23;3.97;;;1.23;;
20966;SDS011;10642;50.682;18.510;2023-04-03T12:57:08;4.67;;;2.07;;
20966;SDS011;10642;50.682;18.510;2023-04-03T12:59:35;4.13;;;1.80;;
20966;SDS011;10642;50.682;18.510;2023-04-03T13:02:03;3.43;;;1.50;;
20966;SDS011;10642;50.682;18.510;2023-04-03T13:04:37;5.43;;;1.63;;
20966;SDS011;10642;50.682;18.510;2023-04-03T13:07:04;2.17;;;1.20;;
20966;SDS011;10642;50.682;18.510;2023-04-03T13:09:32;6.70;;;1.93;;
20966;SDS011;10642;50.682;18.510;2023-04-03T13:12:03;3.40;;;1.63;;
20966;SDS011;10642;50.682;18.510;2023-04-03T13:14:30;3.30;;;1.93;;
20966;SDS011;10642;50.682;18.510;2023-04-03T13:17:10;3.70;;;1.73;;
20966;SDS011;10642;50.682;18.510;2023-04-03T13:19:39;5.47;;;1.83;;
20966;SDS011;10642;50.682;18.510;2023-04-03T13:22:18;3.93;;;2.20;;
20966;SDS011;10642;50.682;18.510;2023-04-03T13:24:46;4.37;;;1.80;;
20966;SDS011;10642;50.682;18.510;2023-04-03T13:27:14;5.30;;;2.20;;
20966;SDS011;10642;50.682;18.510;2023-04-03T13:29:41;5.43;;;2.37;;
20966;SDS011;10642;50.682;18.510;2023-04-03T13:32:14;4.33;;;2.07;;
20966;SDS011;10642;50.682;18.510;2023-04-03T13:34:44;5.00;;;2.17;;
20966;SDS011;10642;50.682;18.510;2023-04-03T13:37:23;8.17;;;2.33;;
20966;SDS011;10642;50.682;18.510;2023-04-03T13:42:44;3.77;;;2.17;;
20966;SDS011;10642;50.682;18.510;2023-04-03T13:45:16;5.00;;;2.33;;
20966;SDS011;10642;50.682;18.510;2023-04-03T13:47:44;4.77;;;2.53;;
20966;SDS011;10642;50.682;18.510;2023-04-03T13:52:43;4.37;;;2.10;;
20966;SDS011;10642;50.682;18.510;2023-04-03T14:00:26;4.20;;;2.57;;
20966;SDS011;10642;50.682;18.510;2023-04-03T14:02:54;4.17;;;1.93;;
20966;SDS011;10642;50.682;18.510;2023-04-03T14:05:23;7.10;;;2.70;;
20966;SDS011;10642;50.682;18.510;2023-04-03T14:07:52;5.80;;;2.30;;
20966;SDS011;10642;50.682;18.510;2023-04-03T14:10:19;4.97;;;2.23;;
20966;SDS011;10642;50.682;18.510;2023-04-03T14:12:46;5.50;;;2.70;;
20966;SDS011;10642;50.682;18.510;2023-04-03T14:15:18;6.60;;;2.47;;
20966;SDS011;10642;50.682;18.510;2023-04-03T14:17:45;7.03;;;3.30;;
20966;SDS011;10642;50.682;18.510;2023-04-03T14:20:17;5.27;;;3.07;;
20966;SDS011;10642;50.682;18.510;2023-04-03T14:22:44;7.00;;;2.63;;
20966;SDS011;10642;50.682;18.510;2023-04-03T14:25:11;5.30;;;2.53;;
20966;SDS011;10642;50.682;18.510;2023-04-03T14:27:39;6.90;;;2.23;;
20966;SDS011;10642;50.682;18.510;2023-04-03T14:30:08;5.23;;;2.60;;
20966;SDS011;10642;50.682;18.510;2023-04-03T14:32:36;5.60;;;2.50;;
20966;SDS011;10642;50.682;18.510;2023-04-03T14:35:03;5.40;;;2.83;;
20966;SDS011;10642;50.682;18.510;2023-04-03T14:37:30;5.87;;;2.37;;
20966;SDS011;10642;50.682;18.510;2023-04-03T14:39:58;3.93;;;2.80;;
20966;SDS011;10642;50.682;18.510;2023-04-03T14:42:26;5.67;;;2.67;;
20966;SDS011;10642;50.682;18.510;2023-04-03T14:44:54;4.20;;;2.37;;
20966;SDS011;10642;50.682;18.510;2023-04-03T14:47:22;3.50;;;2.17;;
20966;SDS011;10642;50.682;18.510;2023-04-03T14:49:58;4.63;;;2.57;;
20966;SDS011;10642;50.682;18.510;2023-04-03T14:52:27;4.30;;;2.23;;
20966;SDS011;10642;50.682;18.510;2023-04-03T14:54:54;5.53;;;2.80;;
20966;SDS011;10642;50.682;18.510;2023-04-03T14:57:22;4.70;;;2.63;;
20966;SDS011;10642;50.682;18.510;2023-04-03T14:59:50;5.93;;;2.70;;
20966;SDS011;10642;50.682;18.510;2023-04-03T15:04:47;5.47;;;3.23;;
20966;SDS011;10642;50.682;18.510;2023-04-03T15:07:17;5.30;;;2.70;;
20966;SDS011;10642;50.682;18.510;2023-04-03T15:09:44;8.37;;;3.10;;
20966;SDS011;10642;50.682;18.510;2023-04-03T15:12:11;8.67;;;3.40;;
20966;SDS011;10642;50.682;18.510;2023-04-03T15:14:40;7.50;;;4.00;;
20966;SDS011;10642;50.682;18.510;2023-04-03T15:17:22;5.93;;;2.37;;
20966;SDS011;10642;50.682;18.510;2023-04-03T15:19:50;6.20;;;3.40;;
20966;SDS011;10642;50.682;18.510;2023-04-03T15:22:18;7.37;;;3.57;;
20966;SDS011;10642;50.682;18.510;2023-04-03T15:24:46;4.67;;;2.60;;
20966;SDS011;10642;50.682;18.510;2023-04-03T15:27:13;6.73;;;3.00;;
20966;SDS011;10642;50.682;18.510;2023-04-03T15:29:42;6.90;;;2.90;;
20966;SDS011;10642;50.682;18.510;2023-04-03T15:32:09;7.17;;;3.67;;
20966;SDS011;10642;50.682;18.510;2023-04-03T15:34:37;5.47;;;3.17;;
20966;SDS011;10642;50.682;18.510;2023-04-03T15:37:05;6.00;;;2.80;;
20966;SDS011;10642;50.682;18.510;2023-04-03T15:39:32;5.97;;;2.90;;
20966;SDS011;10642;50.682;18.510;2023-04-03T15:41:59;8.33;;;3.70;;
20966;SDS011;10642;50.682;18.510;2023-04-03T15:44:35;7.67;;;3.33;;
20966;SDS011;10642;50.682;18.510;2023-04-03T15:47:02;5.33;;;2.60;;
20966;SDS011;10642;50.682;18.510;2023-04-03T15:49:29;6.13;;;2.60;;
20966;SDS011;10642;50.682;18.510;2023-04-03T15:51:57;8.83;;;3.93;;
20966;SDS011;10642;50.682;18.510;2023-04-03T15:54:24;7.47;;;3.10;;
20966;SDS011;10642;50.682;18.510;2023-04-03T15:56:52;10.60;;;3.80;;
20966;SDS011;10642;50.682;18.510;2023-04-03T15:59:19;9.67;;;4.50;;
20966;SDS011;10642;50.682;18.510;2023-04-03T16:01:46;10.47;;;3.90;;
20966;SDS011;10642;50.682;18.510;2023-04-03T16:04:13;7.73;;;3.97;;
20966;SDS011;10642;50.682;18.510;2023-04-03T16:06:41;8.20;;;3.70;;
20966;SDS011;10642;50.682;18.510;2023-04-03T16:09:08;5.70;;;3.00;;